createdAt,value
2018-09-02T00:01:21.599Z,95828.00
2018-09-02T00:03:52.589Z,95822.00
2018-09-02T00:06:23.611Z,95822.00
2018-09-02T00:08:54.491Z,95819.00
2018-09-02T00:11:25.739Z,95809.00
2018-09-02T00:13:56.771Z,95818.00
2018-09-02T00:16:27.911Z,95816.00
2018-09-02T00:18:58.835Z,95815.00
2018-09-02T00:21:29.787Z,95814.00
2018-09-02T00:24:00.731Z,95810.00
2018-09-02T00:26:32.112Z,95807.00
2018-09-02T00:29:03.011Z,95808.00
2018-09-02T00:31:34.031Z,95802.00
2018-09-02T00:34:05.013Z,95801.00
2018-09-02T00:36:36.083Z,95800.00
2018-09-02T00:39:09.912Z,95801.00
2018-09-02T00:41:41.243Z,95793.00
2018-09-02T00:44:12.211Z,95795.00
2018-09-02T00:46:43.326Z,95795.00
2018-09-02T00:49:14.232Z,95794.00
2018-09-02T00:51:45.227Z,95793.00
2018-09-02T00:54:16.096Z,95792.00
2018-09-02T00:56:47.398Z,95785.00
2018-09-02T00:59:18.371Z,95778.00
2018-09-02T01:01:49.483Z,95780.00
2018-09-02T01:04:20.417Z,95775.00
2018-09-02T01:06:51.415Z,95770.00
2018-09-02T01:09:22.246Z,95765.00
2018-09-02T01:11:53.351Z,95764.00
2018-09-02T01:14:24.351Z,95760.00
2018-09-02T01:16:55.302Z,95761.00
2018-09-02T01:19:26.203Z,95765.00
2018-09-02T01:21:57.243Z,95769.00
2018-09-02T01:24:28.443Z,95773.00
2018-09-02T01:26:59.386Z,95769.00
2018-09-02T01:29:30.304Z,95768.00
2018-09-02T01:32:01.311Z,95776.00
2018-09-02T01:34:32.213Z,95765.00
2018-09-02T01:37:03.140Z,95772.00
2018-09-02T01:39:34.100Z,95778.00
2018-09-02T01:42:05.123Z,95776.00
2018-09-02T01:44:36.231Z,95773.00
2018-09-02T01:47:07.354Z,95771.00
2018-09-02T01:49:38.311Z,95767.00
2018-09-02T01:52:09.243Z,95771.00
2018-09-02T01:54:40.080Z,95768.00
2018-09-02T01:57:11.123Z,95767.00
2018-09-02T01:59:42.055Z,95763.00
2018-09-02T02:02:13.084Z,95759.00
2018-09-02T02:04:44.094Z,95763.00
2018-09-02T02:07:15.304Z,95759.00
2018-09-02T02:09:46.199Z,95762.00
2018-09-02T02:12:17.152Z,95758.00
2018-09-02T02:14:48.053Z,95756.00
2018-09-02T02:17:19.152Z,95752.00
2018-09-02T02:19:50.152Z,95755.00
2018-09-02T02:22:21.213Z,95755.00
2018-09-02T02:24:52.112Z,95757.00
2018-09-02T02:27:23.122Z,95753.00
2018-09-02T02:29:54.995Z,95751.00
2018-09-02T02:32:26.084Z,95746.00
2018-09-02T02:34:57.071Z,95748.00
2018-09-02T02:37:27.990Z,95745.00
2018-09-02T02:39:59.104Z,95741.00
2018-09-02T02:42:30.084Z,95739.00
2018-09-02T02:45:01.023Z,95735.00
2018-09-02T02:47:31.920Z,95729.00
2018-09-02T02:50:02.932Z,95729.00
2018-09-02T02:52:38.899Z,95722.00
2018-09-02T02:55:10.596Z,95719.00
2018-09-02T02:57:41.511Z,95718.00
2018-09-02T03:00:12.471Z,95719.00
2018-09-02T03:02:43.398Z,95712.00
2018-09-02T03:05:14.310Z,95701.00
2018-09-02T03:07:45.243Z,95701.00
2018-09-02T03:10:16.251Z,95696.00
2018-09-02T03:12:47.303Z,95695.00
2018-09-02T03:15:19.186Z,95698.00
2018-09-02T03:17:50.254Z,95703.00
2018-09-02T03:20:21.195Z,95705.00
2018-09-02T03:22:52.215Z,95701.00
2018-09-02T03:25:23.135Z,95698.00
2018-09-02T03:27:54.172Z,95696.00
2018-09-02T03:30:25.104Z,95692.00
2018-09-02T03:32:56.183Z,95692.00
2018-09-02T03:35:27.165Z,95689.00
2018-09-02T03:37:58.151Z,95683.00
2018-09-02T03:40:29.151Z,95685.00
2018-09-02T03:43:00.151Z,95689.00
2018-09-02T03:45:31.051Z,95682.00
2018-09-02T03:48:02.130Z,95683.00
2018-09-02T03:50:33.055Z,95685.00
2018-09-02T03:53:04.411Z,95682.00
2018-09-02T03:55:35.613Z,95689.00
2018-09-02T03:58:06.638Z,95688.00
2018-09-02T04:00:37.572Z,95686.00
2018-09-02T04:03:08.523Z,95682.00
2018-09-02T04:05:39.741Z,95684.00
2018-09-02T04:08:10.728Z,95688.00
2018-09-02T04:10:41.712Z,95690.00
2018-09-02T04:13:12.663Z,95682.00
2018-09-02T04:15:43.619Z,95682.00
2018-09-02T04:18:14.630Z,95680.00
2018-09-02T04:20:46.615Z,95673.00
2018-09-02T04:23:17.555Z,95670.00
2018-09-02T04:25:48.511Z,95666.00
2018-09-02T04:28:19.451Z,95665.00
2018-09-02T04:30:50.437Z,95666.00
2018-09-02T04:33:21.476Z,95656.00
2018-09-02T04:35:52.709Z,95656.00
2018-09-02T04:38:23.671Z,95653.00
2018-09-02T04:40:54.687Z,95655.00
2018-09-02T04:43:25.712Z,95651.00
2018-09-02T04:45:56.775Z,95653.00
2018-09-02T04:48:27.881Z,95654.00
2018-09-02T04:50:58.914Z,95651.00
2018-09-02T04:53:29.934Z,95648.00
2018-09-02T04:56:00.816Z,95652.00
2018-09-02T04:58:31.831Z,95653.00
2018-09-02T05:01:02.895Z,95660.00
2018-09-02T05:03:34.299Z,95664.00
2018-09-02T05:06:05.459Z,95662.00
2018-09-02T05:08:36.483Z,95667.00
2018-09-02T05:11:07.700Z,95664.00
2018-09-02T05:13:38.623Z,95666.00
2018-09-02T05:16:09.633Z,95661.00
2018-09-02T05:18:40.539Z,95656.00
2018-09-02T05:21:11.759Z,95661.00
2018-09-02T05:23:42.891Z,95661.00
2018-09-02T05:26:13.816Z,95663.00
2018-09-02T05:28:45.106Z,95665.00
2018-09-02T05:31:16.040Z,95666.00
2018-09-02T05:33:47.608Z,95668.00
2018-09-02T05:36:18.489Z,95667.00
2018-09-02T05:38:49.440Z,95673.00
2018-09-02T05:41:20.375Z,95670.00
2018-09-02T05:43:51.405Z,95661.00
2018-09-02T05:46:22.372Z,95663.00
2018-09-02T05:48:53.351Z,95660.00
2018-09-02T05:51:24.284Z,95661.00
2018-09-02T05:53:55.277Z,95656.00
2018-09-02T05:56:26.366Z,95651.00
2018-09-02T05:58:57.324Z,95650.00
2018-09-02T06:01:28.311Z,95651.00
2018-09-02T06:03:59.271Z,95643.00
2018-09-02T06:06:30.354Z,95646.00
2018-09-02T06:09:01.396Z,95643.00
2018-09-02T06:11:32.988Z,95638.00
2018-09-02T06:14:04.512Z,95639.00
2018-09-02T06:16:35.491Z,95643.00
2018-09-02T06:19:06.564Z,95639.00
2018-09-02T06:21:37.684Z,95643.00
2018-09-02T06:24:08.631Z,95640.00
2018-09-02T06:26:39.631Z,95637.00
2018-09-02T06:29:10.740Z,95640.00
2018-09-02T06:31:41.832Z,95646.00
2018-09-02T06:34:12.999Z,95649.00
2018-09-02T06:36:43.975Z,95642.00
2018-09-02T06:39:15.023Z,95642.00
2018-09-02T06:41:46.008Z,95647.00
2018-09-02T06:44:17.085Z,95644.00
2018-09-02T06:46:47.984Z,95647.00
2018-09-02T06:49:18.899Z,95648.00
2018-09-02T06:51:49.806Z,95645.00
2018-09-02T06:54:21.424Z,95642.00
2018-09-02T06:56:52.351Z,95642.00
2018-09-02T06:59:23.352Z,95646.00
2018-09-02T07:01:54.355Z,95646.00
2018-09-02T07:04:25.506Z,95650.00
2018-09-02T07:06:56.532Z,95648.00
2018-09-02T07:09:27.531Z,95652.00
2018-09-02T07:11:58.522Z,95650.00
2018-09-02T07:14:29.575Z,95648.00
2018-09-02T07:17:00.432Z,95650.00
2018-09-02T07:19:31.492Z,95651.00
2018-09-02T07:22:02.516Z,95651.00
2018-09-02T07:24:33.784Z,95656.00
2018-09-02T07:27:04.887Z,95655.00
2018-09-02T07:29:35.877Z,95659.00
2018-09-02T07:32:06.995Z,95657.00
2018-09-02T07:34:37.976Z,95657.00
2018-09-02T07:37:08.854Z,95656.00
2018-09-02T07:39:39.824Z,95657.00
2018-09-02T07:42:10.751Z,95655.00
2018-09-02T07:44:41.804Z,95660.00
2018-09-02T07:47:12.726Z,95658.00
2018-09-02T07:49:43.717Z,95651.00
2018-09-02T07:52:14.652Z,95651.00
2018-09-02T07:54:45.610Z,95648.00
2018-09-02T07:57:16.564Z,95650.00
2018-09-02T07:59:47.653Z,95655.00
2018-09-02T08:02:18.627Z,95652.00
2018-09-02T08:04:49.651Z,95658.00
2018-09-02T08:07:20.631Z,95652.00
2018-09-02T08:09:51.564Z,95649.00
2018-09-02T08:12:22.616Z,95648.00
2018-09-02T08:14:53.483Z,95649.00
2018-09-02T08:17:24.452Z,95644.00
2018-09-02T08:19:56.493Z,95651.00
2018-09-02T08:22:28.333Z,95651.00
2018-09-02T08:24:59.323Z,95649.00
2018-09-02T08:27:30.232Z,95651.00
2018-09-02T08:30:01.295Z,95649.00
2018-09-02T08:32:32.323Z,95649.00
2018-09-02T08:35:03.311Z,95637.00
2018-09-02T08:37:34.352Z,95638.00
2018-09-02T08:40:05.634Z,95642.00
2018-09-02T08:42:36.614Z,95638.00
2018-09-02T08:45:09.696Z,95639.00
2018-09-02T08:47:40.661Z,95634.00
2018-09-02T08:50:11.640Z,95637.00
2018-09-02T08:52:42.783Z,95632.00
2018-09-02T08:55:13.820Z,95627.00
2018-09-02T08:57:45.211Z,95628.00
2018-09-02T09:00:17.980Z,95631.00
2018-09-02T09:02:50.483Z,95634.00
2018-09-02T09:05:21.552Z,95630.00
2018-09-02T09:07:52.780Z,95630.00
2018-09-02T09:10:23.686Z,95629.00
2018-09-02T09:12:54.796Z,95624.00
2018-09-02T09:15:26.066Z,95631.00
2018-09-02T09:17:57.056Z,95632.00
2018-09-02T09:20:28.092Z,95629.00
2018-09-02T09:22:59.040Z,95624.00
2018-09-02T09:25:31.048Z,95621.00
2018-09-02T09:28:01.979Z,95621.00
2018-09-02T09:30:33.880Z,95621.00
2018-09-02T09:33:04.792Z,95628.00
2018-09-02T09:35:35.766Z,95626.00
2018-09-02T09:38:07.878Z,95620.00
2018-09-02T09:40:39.070Z,95626.00
2018-09-02T09:43:10.075Z,95615.00
2018-09-02T09:45:41.254Z,95624.00
2018-09-02T09:48:12.272Z,95625.00
2018-09-02T09:50:43.546Z,95621.00
2018-09-02T09:53:14.531Z,95617.00
2018-09-02T09:55:45.551Z,95612.00
2018-09-02T09:58:16.511Z,95611.00
2018-09-02T10:00:51.168Z,95612.00
2018-09-02T10:03:23.340Z,95608.00
2018-09-02T10:05:54.245Z,95606.00
2018-09-02T10:08:25.247Z,95603.00
2018-09-02T10:10:56.907Z,95603.00
2018-09-02T10:13:27.860Z,95601.00
2018-09-02T10:15:58.879Z,95595.00
2018-09-02T10:18:29.872Z,95591.00
2018-09-02T10:21:00.904Z,95583.00
2018-09-02T10:23:31.931Z,95582.00
2018-09-02T10:26:02.915Z,95579.00
2018-09-02T10:28:33.954Z,95576.00
2018-09-02T10:31:05.523Z,95574.00
2018-09-02T10:33:36.619Z,95570.00
2018-09-02T10:36:09.119Z,95570.00
2018-09-02T10:38:40.726Z,95563.00
2018-09-02T10:41:11.989Z,95564.00
2018-09-02T10:43:43.468Z,95561.00
2018-09-02T10:46:14.403Z,95559.00
2018-09-02T10:48:45.496Z,95557.00
2018-09-02T10:51:17.232Z,95557.00
2018-09-02T10:53:48.209Z,95551.00
2018-09-02T10:56:19.695Z,95561.00
2018-09-02T10:58:50.928Z,95554.00
2018-09-02T11:01:22.064Z,95549.00
2018-09-02T11:03:53.160Z,95548.00
2018-09-02T11:06:24.316Z,95543.00
2018-09-02T11:08:55.259Z,95542.00
2018-09-02T11:11:26.415Z,95539.00
2018-09-02T11:13:57.491Z,95535.00
2018-09-02T11:16:28.504Z,95536.00
2018-09-02T11:18:59.569Z,95532.00
2018-09-02T11:21:30.615Z,95532.00
2018-09-02T11:24:01.546Z,95527.00
2018-09-02T11:26:32.772Z,95529.00
2018-09-02T11:29:04.033Z,95521.00
2018-09-02T11:31:35.107Z,95517.00
2018-09-02T11:34:06.241Z,95523.00
2018-09-02T11:36:37.874Z,95517.00
2018-09-02T11:39:11.046Z,95515.00
2018-09-02T11:41:42.026Z,95519.00
2018-09-02T11:44:13.003Z,95517.00
2018-09-02T11:46:44.119Z,95515.00
2018-09-02T11:49:15.075Z,95517.00
2018-09-02T11:51:46.146Z,95527.00
2018-09-02T11:54:17.132Z,95526.00
2018-09-02T11:56:48.412Z,95524.00
2018-09-02T11:59:19.360Z,95521.00
2018-09-02T12:01:50.543Z,95524.00
2018-09-02T12:04:21.637Z,95518.00
2018-09-02T12:06:52.772Z,95519.00
2018-09-02T12:09:23.734Z,95520.00
2018-09-02T12:11:54.788Z,95523.00
2018-09-02T12:14:25.812Z,95513.00
2018-09-02T12:16:56.927Z,95507.00
2018-09-02T12:19:28.852Z,95494.00
2018-09-02T12:21:59.891Z,95492.00
2018-09-02T12:24:31.404Z,95491.00
2018-09-02T12:27:02.872Z,95483.00
2018-09-02T12:29:33.853Z,95477.00
2018-09-02T12:32:05.815Z,95474.00
2018-09-02T12:34:36.672Z,95471.00
2018-09-02T12:37:07.672Z,95469.00
2018-09-02T12:39:38.608Z,95469.00
2018-09-02T12:42:10.347Z,95466.00
2018-09-02T12:44:41.584Z,95462.00
2018-09-02T12:47:12.847Z,95463.00
2018-09-02T12:49:43.944Z,95462.00
2018-09-02T12:52:17.045Z,95458.00
2018-09-02T12:54:47.990Z,95450.00
2018-09-02T12:57:18.943Z,95449.00
2018-09-02T12:59:49.973Z,95435.00
2018-09-02T13:02:20.933Z,95445.00
2018-09-02T13:04:52.052Z,95438.00
2018-09-02T13:07:22.956Z,95437.00
2018-09-02T13:09:53.972Z,95428.00
2018-09-02T13:12:24.926Z,95431.00
2018-09-02T13:14:55.937Z,95428.00
2018-09-02T13:17:26.952Z,95429.00
2018-09-02T13:19:57.949Z,95422.00
2018-09-02T13:22:28.985Z,95425.00
2018-09-02T13:24:59.927Z,95433.00
2018-09-02T13:27:31.033Z,95424.00
2018-09-02T13:30:02.035Z,95425.00
2018-09-02T13:32:33.078Z,95421.00
2018-09-02T13:35:04.129Z,95423.00
2018-09-02T13:37:35.468Z,95422.00
2018-09-02T13:40:06.839Z,95416.00
2018-09-02T13:42:38.232Z,95421.00
2018-09-02T13:45:09.864Z,95415.00
2018-09-02T13:47:40.904Z,95412.00
2018-09-02T13:50:11.867Z,95409.00
2018-09-02T13:52:42.871Z,95403.00
2018-09-02T13:55:13.853Z,95403.00
2018-09-02T13:57:44.903Z,95403.00
2018-09-02T14:00:15.822Z,95406.00
2018-09-02T14:02:46.956Z,95397.00
2018-09-02T14:05:17.835Z,95404.00
2018-09-02T14:07:48.862Z,95405.00
2018-09-02T14:10:19.721Z,95404.00
2018-09-02T14:12:51.297Z,95400.00
2018-09-02T14:15:22.341Z,95400.00
2018-09-02T14:17:53.386Z,95393.00
2018-09-02T14:20:24.412Z,95393.00
2018-09-02T14:22:55.599Z,95393.00
2018-09-02T14:25:26.552Z,95393.00
2018-09-02T14:27:58.423Z,95387.00
2018-09-02T14:30:29.392Z,95386.00
2018-09-02T14:33:00.475Z,95382.00
2018-09-02T14:35:31.402Z,95380.00
2018-09-02T14:38:02.456Z,95380.00
2018-09-02T14:40:33.383Z,95374.00
2018-09-02T14:43:04.456Z,95373.00
2018-09-02T14:45:35.426Z,95368.00
2018-09-02T14:48:06.436Z,95373.00
2018-09-02T14:50:37.379Z,95374.00
2018-09-02T14:53:08.565Z,95370.00
2018-09-02T14:55:39.444Z,95377.00
2018-09-02T14:58:10.539Z,95377.00
2018-09-02T15:00:41.699Z,95384.00
2018-09-02T15:03:12.832Z,95379.00
2018-09-02T15:05:43.749Z,95386.00
2018-09-02T15:08:14.836Z,95384.00
2018-09-02T15:10:45.939Z,95377.00
2018-09-02T15:13:16.969Z,95381.00
2018-09-02T15:15:48.014Z,95383.00
2018-09-02T15:18:18.991Z,95380.00
2018-09-02T15:20:50.916Z,95379.00
2018-09-02T15:23:22.116Z,95376.00
2018-09-02T15:25:53.104Z,95376.00
2018-09-02T15:28:25.048Z,95378.00
2018-09-02T15:30:55.956Z,95389.00
2018-09-02T15:33:26.962Z,95385.00
2018-09-02T15:35:57.982Z,95385.00
2018-09-02T15:38:28.946Z,95389.00
2018-09-02T15:41:00.571Z,95383.00
2018-09-02T15:43:31.512Z,95389.00
2018-09-02T15:46:02.412Z,95378.00
2018-09-02T15:48:33.410Z,95386.00
2018-09-02T15:51:04.251Z,95383.00
2018-09-02T15:53:35.497Z,95386.00
2018-09-02T15:56:06.671Z,95393.00
2018-09-02T15:58:37.704Z,95379.00
2018-09-02T16:01:08.704Z,95384.00
2018-09-02T16:03:39.758Z,95382.00
2018-09-02T16:06:10.946Z,95378.00
2018-09-02T16:08:41.929Z,95370.00
2018-09-02T16:11:12.851Z,95363.00
2018-09-02T16:13:43.854Z,95369.00
2018-09-02T16:16:14.859Z,95370.00
2018-09-02T16:18:45.911Z,95380.00
2018-09-02T16:21:17.024Z,95390.00
2018-09-02T16:23:48.423Z,95389.00
2018-09-02T16:26:19.452Z,95389.00
2018-09-02T16:28:51.323Z,95385.00
2018-09-02T16:31:22.263Z,95386.00
2018-09-02T16:33:53.571Z,95384.00
2018-09-02T16:36:24.479Z,95382.00
2018-09-02T16:38:55.428Z,95378.00
2018-09-02T16:41:26.408Z,95376.00
2018-09-02T16:43:57.436Z,95374.00
2018-09-02T16:46:28.411Z,95372.00
2018-09-02T16:48:59.538Z,95372.00
2018-09-02T16:51:30.513Z,95376.00
2018-09-02T16:54:01.524Z,95370.00
2018-09-02T16:56:32.483Z,95370.00
2018-09-02T16:59:03.548Z,95375.00
2018-09-02T17:01:34.612Z,95372.00
2018-09-02T17:04:09.102Z,95381.00
2018-09-02T17:06:40.255Z,95378.00
2018-09-02T17:09:12.835Z,95377.00
2018-09-02T17:11:43.797Z,95377.00
2018-09-02T17:14:14.812Z,95375.00
2018-09-02T17:16:45.756Z,95371.00
2018-09-02T17:19:21.012Z,95372.00
2018-09-02T17:21:52.155Z,95369.00
2018-09-02T17:24:23.335Z,95376.00
2018-09-02T17:26:54.334Z,95380.00
2018-09-02T17:29:25.442Z,95376.00
2018-09-02T17:31:57.812Z,95375.00
2018-09-02T17:34:28.866Z,95376.00
2018-09-02T17:36:59.864Z,95378.00
2018-09-02T17:39:31.408Z,95379.00
2018-09-02T17:42:02.717Z,95385.00
2018-09-02T17:44:33.807Z,95381.00
2018-09-02T17:47:05.016Z,95385.00
2018-09-02T17:49:36.335Z,95393.00
2018-09-02T17:52:07.612Z,95401.00
2018-09-02T17:54:38.824Z,95399.00
2018-09-02T17:57:09.827Z,95403.00
2018-09-02T17:59:40.829Z,95400.00
2018-09-02T18:02:13.533Z,95411.00
2018-09-02T18:04:45.775Z,95413.00
2018-09-02T18:07:17.469Z,95420.00
2018-09-02T18:09:48.674Z,95421.00
2018-09-02T18:12:20.436Z,95422.00
2018-09-02T18:14:52.787Z,95428.00
2018-09-02T18:17:24.073Z,95431.00
2018-09-02T18:19:56.072Z,95428.00
2018-09-02T18:22:27.235Z,95432.00
2018-09-02T18:24:58.725Z,95434.00
2018-09-02T18:27:34.155Z,95446.00
2018-09-02T18:30:07.756Z,95445.00
2018-09-02T18:32:39.392Z,95445.00
2018-09-02T18:35:11.192Z,95444.00
2018-09-02T18:37:42.241Z,95449.00
2018-09-02T18:40:15.705Z,95449.00
2018-09-02T18:42:47.951Z,95450.00
2018-09-02T18:45:20.008Z,95452.00
2018-09-02T18:47:51.092Z,95453.00
2018-09-02T18:50:23.342Z,95454.00
2018-09-02T18:52:54.314Z,95447.00
2018-09-02T18:55:27.885Z,95453.00
2018-09-02T18:58:00.167Z,95450.00
2018-09-02T19:00:31.947Z,95447.00
2018-09-02T19:03:06.449Z,95443.00
2018-09-02T19:05:38.714Z,95442.00
2018-09-02T19:08:11.632Z,95444.00
2018-09-02T19:10:43.262Z,95441.00
2018-09-02T19:13:15.534Z,95446.00
2018-09-02T19:15:46.598Z,95439.00
2018-09-02T19:18:18.664Z,95439.00
2018-09-02T19:20:49.644Z,95441.00
2018-09-02T19:23:20.595Z,95439.00
2018-09-02T19:25:53.792Z,95436.00
2018-09-02T19:28:24.853Z,95441.00
2018-09-02T19:30:55.899Z,95443.00
2018-09-02T19:33:27.211Z,95446.00
2018-09-02T19:35:58.274Z,95450.00
2018-09-02T19:38:29.225Z,95452.00
2018-09-02T19:41:00.501Z,95455.00
2018-09-02T19:43:31.785Z,95451.00
2018-09-02T19:46:03.784Z,95448.00
2018-09-02T19:48:35.122Z,95446.00
2018-09-02T19:51:06.665Z,95454.00
2018-09-02T19:53:38.513Z,95449.00
2018-09-02T19:56:10.327Z,95455.00
2018-09-02T19:58:41.437Z,95456.00
2018-09-02T20:01:14.573Z,95455.00
2018-09-02T20:03:45.698Z,95447.00
2018-09-02T20:06:16.726Z,95453.00
2018-09-02T20:08:47.939Z,95449.00
2018-09-02T20:11:19.016Z,95449.00
2018-09-02T20:13:50.234Z,95445.00
2018-09-02T20:16:21.470Z,95447.00
2018-09-02T20:18:52.804Z,95443.00
2018-09-02T20:21:24.071Z,95445.00
2018-09-02T20:23:55.609Z,95445.00
2018-09-02T20:26:26.811Z,95448.00
2018-09-02T20:28:57.880Z,95442.00
2018-09-02T20:31:29.692Z,95443.00
2018-09-02T20:34:01.253Z,95446.00
2018-09-02T20:36:32.529Z,95448.00
2018-09-02T20:39:05.066Z,95447.00
2018-09-02T20:41:36.323Z,95448.00
2018-09-02T20:44:08.147Z,95449.00
2018-09-02T20:46:39.704Z,95448.00
2018-09-02T20:49:10.632Z,95450.00
2018-09-02T20:51:42.248Z,95452.00
2018-09-02T20:54:13.234Z,95454.00
2018-09-02T20:56:45.544Z,95452.00
2018-09-02T20:59:16.666Z,95455.00
2018-09-02T21:01:47.630Z,95455.00
2018-09-02T21:04:19.512Z,95452.00
2018-09-02T21:06:51.166Z,95452.00
2018-09-02T21:09:22.168Z,95461.00
2018-09-02T21:11:53.692Z,95460.00
2018-09-02T21:14:24.631Z,95465.00
2018-09-02T21:16:55.606Z,95465.00
2018-09-02T21:19:26.591Z,95468.00
2018-09-02T21:21:57.680Z,95473.00
2018-09-02T21:24:28.833Z,95467.00
2018-09-02T21:27:00.496Z,95466.00
2018-09-02T21:29:31.475Z,95466.00
2018-09-02T21:32:02.443Z,95468.00
2018-09-02T21:34:33.506Z,95462.00
2018-09-02T21:37:04.589Z,95464.00
2018-09-02T21:39:35.631Z,95463.00
2018-09-02T21:42:06.731Z,95467.00
2018-09-02T21:44:37.692Z,95465.00
2018-09-02T21:47:08.675Z,95462.00
2018-09-02T21:49:39.704Z,95462.00
2018-09-02T21:52:10.788Z,95457.00
2018-09-02T21:54:41.699Z,95460.00
2018-09-02T21:57:12.641Z,95455.00
2018-09-02T21:59:43.618Z,95450.00
2018-09-02T22:02:14.692Z,95446.00
2018-09-02T22:04:45.651Z,95444.00
2018-09-02T22:07:16.695Z,95444.00
2018-09-02T22:09:47.612Z,95435.00
2018-09-02T22:12:18.632Z,95433.00
2018-09-02T22:14:50.583Z,95430.00
2018-09-02T22:17:21.592Z,95420.00
2018-09-02T22:19:52.452Z,95421.00
2018-09-02T22:22:23.444Z,95412.00
2018-09-02T22:24:54.372Z,95409.00
2018-09-02T22:27:26.305Z,95401.00
2018-09-02T22:29:57.338Z,95395.00
2018-09-02T22:32:28.351Z,95388.00
2018-09-02T22:34:59.211Z,95384.00
2018-09-02T22:37:30.296Z,95374.00
2018-09-02T22:40:01.254Z,95371.00
2018-09-02T22:42:32.252Z,95375.00
2018-09-02T22:45:03.169Z,95378.00
2018-09-02T22:47:34.144Z,95376.00
2018-09-02T22:50:05.188Z,95369.00
2018-09-02T22:52:36.212Z,95364.00
2018-09-02T22:55:07.131Z,95354.00
2018-09-02T22:57:38.232Z,95352.00
2018-09-02T23:00:09.227Z,95354.00
2018-09-02T23:02:40.191Z,95350.00
2018-09-02T23:05:11.424Z,95347.00
2018-09-02T23:07:42.431Z,95349.00
2018-09-02T23:10:14.363Z,95347.00
2018-09-02T23:12:45.516Z,95351.00
2018-09-02T23:15:16.472Z,95358.00
2018-09-02T23:17:47.393Z,95356.00
2018-09-02T23:20:18.389Z,95357.00
2018-09-02T23:22:49.575Z,95359.00
2018-09-02T23:25:20.571Z,95365.00
2018-09-02T23:27:51.656Z,95370.00
2018-09-02T23:30:22.592Z,95369.00
2018-09-02T23:32:53.651Z,95375.00
2018-09-02T23:35:24.576Z,95379.00
2018-09-02T23:37:55.511Z,95375.00
2018-09-02T23:40:26.447Z,95371.00
2018-09-02T23:42:57.411Z,95375.00
2018-09-02T23:45:28.324Z,95377.00
2018-09-02T23:47:59.343Z,95382.00
2018-09-02T23:50:30.492Z,95381.00
2018-09-02T23:53:01.431Z,95388.00
2018-09-02T23:55:32.416Z,95390.00
2018-09-02T23:58:03.592Z,95388.00
